»·PEaware :: N326LP KWHP-KAPV

N326LP :: KWHP-KAPV

FLIGHT INFORMATION

Flight Status: Arrived
Operator: Privately registered:
United States
More flights under this callsign
Pilot: Jon S. (43478)
Aircraft: CESSNA 172 SKYHAWK
(C172)
More flights by this aircraft type
Origin: KWHP Whiteman
United States
Destination: KAPV Apple Valley
United States
More flights between these airports :: More routes between these airports
Route: LANGE PMD
File this flight plan on PilotEdge
Remarks:
Altitude:
(Current/Filed)
6,500ft
Speed:
(Current/Filed)
110kts
Departed: 07-Sep-23 09:38 AM
Arrived: 07-Sep-23 10:20 AM
Distance/Time
Traveled:
63nm/0:42
Distance/Time
To Go:
Arrived

Flight Plot

Page will automatically refresh every two minutes.

Flight plan parsing failed; only flown route is shown


Map Options




Map Legend


Flown Route
Filed Route
Departure Airport
Arrival Airport
Navaid (VOR, NDB)
Fix

Horizontal Profiles

Position Reports

Time Latitude Longitude Heading Altitude Ground
Speed
07-Sep-23 09:29 34.261079 -118.413473 319 1000ft 0kts
07-Sep-23 09:30 34.261079 -118.413473 319 1000ft 0kts
07-Sep-23 09:31 34.261079 -118.413473 319 1000ft 0kts
07-Sep-23 09:32 34.259388 -118.412895 138 990ft 15kts
07-Sep-23 09:33 34.255587 -118.408902 158 969ft 0kts
07-Sep-23 09:34 34.255587 -118.408902 158 969ft 0kts
07-Sep-23 09:35 34.255587 -118.408902 158 969ft 0kts
07-Sep-23 09:36 34.255512 -118.408883 175 969ft 4kts
07-Sep-23 09:37 34.264559 -118.419375 313 1313ft 75kts
07-Sep-23 09:38 34.279582 -118.433710 331 2163ft 68kts
07-Sep-23 09:39 34.296549 -118.444197 348 2924ft 70kts
07-Sep-23 09:40 34.316120 -118.447710 354 3666ft 71kts
07-Sep-23 09:41 34.335303 -118.448567 0 4380ft 69kts
07-Sep-23 09:42 34.354851 -118.445376 4 5011ft 74kts
07-Sep-23 09:43 34.376848 -118.439487 11 5579ft 86kts
07-Sep-23 09:44 34.398452 -118.424269 29 6199ft 88kts
07-Sep-23 09:45 34.418571 -118.401569 41 6524ft 116kts
07-Sep-23 09:46 34.438556 -118.369577 55 6728ft 122kts
07-Sep-23 09:47 34.453957 -118.332624 59 6750ft 125kts
07-Sep-23 09:48 34.471682 -118.296704 52 6633ft 118kts
07-Sep-23 09:49 34.490317 -118.262549 51 6600ft 119kts
07-Sep-23 09:50 34.508729 -118.226826 54 6607ft 128kts
07-Sep-23 09:51 34.527744 -118.189885 54 6608ft 130kts
07-Sep-23 09:52 34.546942 -118.152520 54 6606ft 130kts
07-Sep-23 09:53 34.566095 -118.115086 54 6604ft 131kts
07-Sep-23 09:54 34.585320 -118.077397 54 6594ft 131kts
07-Sep-23 09:55 34.603554 -118.038878 57 6592ft 131kts
07-Sep-23 09:56 34.613078 -117.997153 96 6593ft 135kts
07-Sep-23 09:57 34.608729 -117.951755 90 6591ft 135kts
07-Sep-23 09:58 34.607214 -117.906238 89 6588ft 133kts
07-Sep-23 09:59 34.605679 -117.862318 89 6580ft 130kts
07-Sep-23 10:00 34.604008 -117.816286 89 6579ft 128kts
07-Sep-23 10:01 34.602429 -117.772471 89 6579ft 128kts
07-Sep-23 10:02 34.601744 -117.729771 89 6599ft 123kts
07-Sep-23 10:03 34.602041 -117.688302 89 6595ft 122kts
07-Sep-23 10:04 34.602367 -117.647061 89 6594ft 122kts
07-Sep-23 10:05 34.602724 -117.605870 89 6594ft 122kts
07-Sep-23 10:06 34.603110 -117.564808 89 6594ft 122kts
07-Sep-23 10:07 34.603528 -117.523537 89 6593ft 122kts
07-Sep-23 10:08 34.603975 -117.482447 89 6593ft 122kts
07-Sep-23 10:09 34.604431 -117.441648 89 6890ft 118kts
07-Sep-23 10:10 34.605737 -117.400104 81 6922ft 128kts
07-Sep-23 10:11 34.614369 -117.357380 76 7089ft 129kts
07-Sep-23 10:12 34.623006 -117.310725 79 6981ft 127kts
07-Sep-23 10:13 34.630965 -117.264308 76 6531ft 129kts
07-Sep-23 10:14 34.643447 -117.219716 69 6160ft 124kts
07-Sep-23 10:15 34.652459 -117.179246 101 5745ft 108kts
07-Sep-23 10:16 34.631223 -117.164832 204 4916ft 93kts
07-Sep-23 10:17 34.608081 -117.175221 199 4026ft 83kts
07-Sep-23 10:18 34.586547 -117.182873 197 3139ft 82kts
07-Sep-23 10:19 34.573178 -117.188058 262 2975ft 17kts
07-Sep-23 10:20 34.573560 -117.189093 359 2973ft 0kts
07-Sep-23 10:21 34.573560 -117.189093 359 2973ft 0kts
07-Sep-23 10:22 34.573560 -117.189093 359 2973ft 0kts

Navigation Log

Ident Type
Flight plan parsing failed, navigation log unavailable